createdAt,value
2023-05-19T00:01:00.344Z,10.80
2023-05-19T00:03:27.665Z,10.80
2023-05-19T00:05:55.680Z,10.70
2023-05-19T00:08:24.758Z,10.70
2023-05-19T00:10:52.328Z,10.60
2023-05-19T00:13:19.939Z,10.60
2023-05-19T00:15:47.179Z,10.60
2023-05-19T00:18:14.183Z,10.60
2023-05-19T00:20:41.364Z,10.50
2023-05-19T00:23:08.161Z,10.40
2023-05-19T00:25:34.923Z,10.40
2023-05-19T00:28:02.448Z,10.40
2023-05-19T00:30:30.883Z,10.40
2023-05-19T00:32:57.729Z,10.30
2023-05-19T00:35:24.559Z,10.30
2023-05-19T00:37:51.531Z,10.30
2023-05-19T00:40:18.399Z,10.50
2023-05-19T00:42:45.653Z,10.40
2023-05-19T00:45:12.320Z,10.40
2023-05-19T00:47:39.629Z,10.40
2023-05-19T00:50:06.813Z,10.40
2023-05-19T00:52:33.689Z,10.30
2023-05-19T00:55:00.506Z,10.20
2023-05-19T00:57:28.094Z,10.20
2023-05-19T00:59:54.967Z,10.10
2023-05-19T01:02:21.968Z,10.10
2023-05-19T01:04:51.293Z,10.00
2023-05-19T01:07:18.627Z,10.00
2023-05-19T01:09:47.305Z,10.00
2023-05-19T01:12:14.489Z,10.00
2023-05-19T01:14:41.894Z,10.00
2023-05-19T01:17:34.349Z,9.90
2023-05-19T01:20:10.789Z,9.90
2023-05-19T01:22:59.282Z,9.90
2023-05-19T01:25:49.008Z,9.90
2023-05-19T01:28:53.434Z,9.90
2023-05-19T01:31:26.024Z,9.90
2023-05-19T01:33:54.329Z,9.90
2023-05-19T01:36:23.056Z,9.90
2023-05-19T01:38:53.926Z,10.00
2023-05-19T01:41:22.339Z,9.90
2023-05-19T01:43:50.759Z,9.90
2023-05-19T01:46:18.672Z,10.00
2023-05-19T01:48:45.684Z,9.90
2023-05-19T01:51:12.451Z,10.00
2023-05-19T01:53:39.498Z,10.00
2023-05-19T01:56:06.952Z,10.00
2023-05-19T01:58:33.508Z,10.00
2023-05-19T02:01:28.289Z,10.00
2023-05-19T02:04:35.723Z,9.90
2023-05-19T02:07:11.985Z,9.80
2023-05-19T02:09:53.823Z,9.80
2023-05-19T02:12:25.860Z,9.80
2023-05-19T02:15:09.398Z,9.80
2023-05-19T02:17:41.471Z,9.70
2023-05-19T02:20:09.866Z,9.80
2023-05-19T02:22:36.740Z,9.60
2023-05-19T02:25:03.578Z,9.60
2023-05-19T02:27:30.948Z,9.60
2023-05-19T02:29:57.898Z,9.60
2023-05-19T02:32:24.862Z,9.60
2023-05-19T02:34:53.171Z,9.60
2023-05-19T02:37:23.667Z,9.70
2023-05-19T02:39:50.477Z,9.60
2023-05-19T02:42:19.926Z,9.70
2023-05-19T02:44:46.672Z,9.70
2023-05-19T02:47:13.666Z,9.70
2023-05-19T02:49:40.542Z,9.60
2023-05-19T02:52:10.018Z,9.60
2023-05-19T02:54:36.721Z,9.60
2023-05-19T02:57:03.594Z,9.70
2023-05-19T02:59:30.216Z,9.60
2023-05-19T03:02:02.102Z,9.50
2023-05-19T03:04:31.340Z,9.50
2023-05-19T03:06:58.122Z,9.60
2023-05-19T03:09:24.966Z,9.60
2023-05-19T03:11:51.621Z,9.60
2023-05-19T03:14:18.679Z,9.60
2023-05-19T03:16:45.579Z,9.60
2023-05-19T03:19:12.638Z,9.50
2023-05-19T03:21:39.379Z,9.50
2023-05-19T03:24:06.675Z,9.50
2023-05-19T03:26:33.408Z,9.50
2023-05-19T03:29:00.010Z,9.50
2023-05-19T03:35:11.639Z,9.50
2023-05-19T03:37:38.380Z,9.40
2023-05-19T03:40:05.828Z,9.40
2023-05-19T03:42:32.609Z,9.40
2023-05-19T03:44:59.256Z,9.50
2023-05-19T03:47:26.002Z,9.50
2023-05-19T03:49:52.635Z,9.50
2023-05-19T03:52:19.294Z,9.40
2023-05-19T03:54:46.081Z,9.30
2023-05-19T03:57:12.734Z,9.20
2023-05-19T03:59:41.257Z,9.20
2023-05-19T04:02:08.376Z,9.20
2023-05-19T04:04:35.720Z,9.20
2023-05-19T04:07:02.534Z,9.30
2023-05-19T04:09:31.868Z,9.20
2023-05-19T04:11:58.772Z,9.30
2023-05-19T04:14:25.636Z,9.40
2023-05-19T04:16:53.654Z,9.30
2023-05-19T04:19:20.976Z,9.30
2023-05-19T04:21:47.833Z,9.40
2023-05-19T04:24:14.487Z,9.50
2023-05-19T04:26:42.504Z,9.50
2023-05-19T04:29:10.750Z,9.40
2023-05-19T04:31:37.532Z,9.40
2023-05-19T04:34:04.463Z,9.40
2023-05-19T04:36:31.199Z,9.50
2023-05-19T04:39:05.952Z,9.50
2023-05-19T04:41:33.819Z,9.50
2023-05-19T04:44:00.744Z,9.60
2023-05-19T04:46:29.825Z,9.50
2023-05-19T04:48:57.109Z,9.50
2023-05-19T04:51:33.215Z,9.50
2023-05-19T04:54:00.063Z,9.60
2023-05-19T04:56:27.367Z,9.60
2023-05-19T04:58:54.320Z,9.70
2023-05-19T05:01:25.795Z,9.70
2023-05-19T05:03:58.912Z,9.70
2023-05-19T05:06:26.466Z,9.70
2023-05-19T05:08:53.478Z,9.70
2023-05-19T05:11:20.575Z,9.70
2023-05-19T05:13:47.780Z,9.90
2023-05-19T05:16:15.278Z,9.90
2023-05-19T05:18:44.696Z,10.00
2023-05-19T05:21:12.454Z,10.00
2023-05-19T05:23:39.564Z,10.00
2023-05-19T05:26:15.310Z,10.00
2023-05-19T05:28:42.113Z,10.10
2023-05-19T05:31:09.000Z,10.10
2023-05-19T05:33:36.151Z,10.20
2023-05-19T05:36:03.789Z,10.30
2023-05-19T05:38:31.053Z,10.30
2023-05-19T05:40:57.729Z,10.40
2023-05-19T05:43:24.701Z,10.40
2023-05-19T05:45:51.507Z,10.50
2023-05-19T05:48:18.470Z,10.50
2023-05-19T05:50:45.779Z,10.50
2023-05-19T05:53:21.438Z,10.50
2023-05-19T05:55:48.792Z,10.50
2023-05-19T05:58:16.927Z,10.50
2023-05-19T06:00:44.203Z,10.60
2023-05-19T06:03:11.811Z,10.80
2023-05-19T06:05:38.839Z,10.80
2023-05-19T06:08:06.172Z,10.90
2023-05-19T06:10:33.603Z,10.90
2023-05-19T06:13:00.718Z,11.20
2023-05-19T06:15:27.408Z,11.20
2023-05-19T06:17:54.690Z,11.20
2023-05-19T06:20:21.803Z,11.40
2023-05-19T06:22:48.549Z,11.30
2023-05-19T06:25:15.190Z,11.40
2023-05-19T06:27:41.938Z,11.60
2023-05-19T06:30:09.204Z,11.60
2023-05-19T06:32:35.949Z,11.80
2023-05-19T06:35:02.675Z,11.80
2023-05-19T06:37:29.354Z,11.80
2023-05-19T06:39:56.006Z,11.90
2023-05-19T06:42:23.022Z,12.00
2023-05-19T06:44:53.236Z,12.10
2023-05-19T06:47:20.081Z,12.20
2023-05-19T06:49:50.571Z,12.20
2023-05-19T06:52:21.660Z,12.30
2023-05-19T06:54:49.405Z,12.50
2023-05-19T06:57:18.802Z,12.70
2023-05-19T06:59:49.265Z,12.90
2023-05-19T07:02:16.528Z,13.00
2023-05-19T07:04:44.600Z,13.10
2023-05-19T07:07:11.281Z,13.20
2023-05-19T07:09:38.057Z,13.10
2023-05-19T07:12:04.982Z,13.10
2023-05-19T07:14:31.830Z,13.20
2023-05-19T07:16:59.797Z,13.20
2023-05-19T07:19:26.878Z,13.40
2023-05-19T07:21:54.781Z,13.60
2023-05-19T07:24:22.198Z,13.80
2023-05-19T07:26:49.087Z,14.00
2023-05-19T07:29:15.800Z,14.10
2023-05-19T07:31:42.432Z,14.10
2023-05-19T07:34:09.155Z,14.20
2023-05-19T07:36:36.137Z,14.10
2023-05-19T07:39:03.410Z,14.10
2023-05-19T07:41:30.316Z,14.10
2023-05-19T07:43:57.388Z,14.30
2023-05-19T07:46:24.070Z,14.40
2023-05-19T07:48:56.562Z,14.60
2023-05-19T07:51:23.225Z,14.90
2023-05-19T07:53:50.028Z,15.10
2023-05-19T07:56:16.747Z,15.20
2023-05-19T07:58:43.479Z,15.20
2023-05-19T08:01:10.401Z,15.40
2023-05-19T08:03:37.323Z,15.40
2023-05-19T08:06:10.328Z,15.50
2023-05-19T08:08:37.295Z,15.70
2023-05-19T08:11:04.828Z,15.90
2023-05-19T08:13:31.616Z,15.80
2023-05-19T08:16:00.074Z,15.90
2023-05-19T08:18:27.210Z,16.10
2023-05-19T08:20:54.014Z,16.20
2023-05-19T08:23:22.454Z,16.30
2023-05-19T08:25:52.233Z,16.40
2023-05-19T08:28:18.850Z,16.60
2023-05-19T08:30:47.999Z,16.50
2023-05-19T08:33:14.890Z,16.70
2023-05-19T08:35:41.694Z,16.70
2023-05-19T08:38:08.586Z,16.80
2023-05-19T08:40:38.146Z,16.80
2023-05-19T08:43:04.885Z,17.10
2023-05-19T08:45:34.400Z,17.20
2023-05-19T08:48:01.307Z,17.10
2023-05-19T08:50:31.068Z,17.20
2023-05-19T08:53:33.406Z,17.20
2023-05-19T08:56:24.181Z,17.30
2023-05-19T08:58:51.782Z,17.40
2023-05-19T09:01:19.852Z,17.50
2023-05-19T09:03:49.642Z,17.40
2023-05-19T09:06:16.988Z,17.60
2023-05-19T09:08:44.375Z,17.50
2023-05-19T09:11:11.238Z,17.50
2023-05-19T09:13:39.558Z,17.40
2023-05-19T09:16:06.689Z,17.60
2023-05-19T09:18:33.637Z,17.60
2023-05-19T09:21:02.733Z,17.40
2023-05-19T09:23:34.037Z,17.60
2023-05-19T09:26:08.075Z,17.80
2023-05-19T09:28:37.589Z,17.60
2023-05-19T09:31:09.376Z,17.50
2023-05-19T09:33:38.623Z,17.60
2023-05-19T09:36:08.325Z,17.60
2023-05-19T09:38:36.402Z,17.60
2023-05-19T09:41:04.951Z,17.90
2023-05-19T09:43:33.605Z,18.00
2023-05-19T09:46:03.545Z,17.70
2023-05-19T09:48:30.515Z,17.80
2023-05-19T09:50:58.184Z,17.90
2023-05-19T09:53:25.562Z,17.90
2023-05-19T09:55:59.154Z,17.90
2023-05-19T09:58:27.051Z,18.10
2023-05-19T10:00:57.115Z,18.20
2023-05-19T10:03:25.140Z,18.50
2023-05-19T10:05:53.608Z,18.80
2023-05-19T10:08:21.449Z,19.00
2023-05-19T10:10:48.426Z,18.80
2023-05-19T10:13:16.608Z,19.00
2023-05-19T10:15:57.074Z,18.90
2023-05-19T10:18:26.681Z,19.00
2023-05-19T10:21:03.301Z,19.00
2023-05-19T10:23:29.963Z,19.20
2023-05-19T10:25:59.780Z,19.40
2023-05-19T10:28:33.336Z,19.40
2023-05-19T10:31:02.750Z,19.40
2023-05-19T10:33:52.508Z,19.30
2023-05-19T10:36:45.852Z,19.40
2023-05-19T10:39:19.314Z,19.40
2023-05-19T10:42:16.880Z,19.50
2023-05-19T10:45:13.295Z,19.90
2023-05-19T10:47:43.597Z,19.80
2023-05-19T10:50:11.132Z,19.80
2023-05-19T10:52:41.887Z,19.60
2023-05-19T10:55:10.260Z,19.50
2023-05-19T10:57:37.066Z,19.70
2023-05-19T11:00:25.927Z,19.80
2023-05-19T11:02:56.283Z,20.00
2023-05-19T11:05:29.613Z,20.00
2023-05-19T11:08:04.708Z,20.30
2023-05-19T11:10:31.994Z,20.60
2023-05-19T11:12:58.699Z,20.80
2023-05-19T11:15:28.784Z,20.90
2023-05-19T11:17:56.690Z,21.10
2023-05-19T11:20:28.376Z,21.10
2023-05-19T11:23:24.443Z,20.70
2023-05-19T11:25:53.890Z,20.80
2023-05-19T11:28:29.281Z,21.20
2023-05-19T11:30:59.975Z,21.10
2023-05-19T11:33:27.590Z,21.10
2023-05-19T11:35:59.175Z,21.00
2023-05-19T11:38:28.324Z,21.60
2023-05-19T11:40:55.895Z,21.90
2023-05-19T11:43:23.731Z,22.20
2023-05-19T11:45:51.008Z,21.70
2023-05-19T11:48:21.274Z,21.60
2023-05-19T11:50:48.030Z,21.40
2023-05-19T11:53:16.618Z,21.60
2023-05-19T11:55:46.400Z,21.30
2023-05-19T11:58:13.756Z,21.40
2023-05-19T12:00:42.906Z,21.70
2023-05-19T12:03:10.093Z,22.20
2023-05-19T12:05:43.126Z,22.20
2023-05-19T12:08:11.685Z,22.60
2023-05-19T12:10:41.654Z,22.80
2023-05-19T12:13:11.467Z,22.60
2023-05-19T12:15:38.684Z,22.20
2023-05-19T12:18:05.814Z,22.50
2023-05-19T12:20:35.446Z,22.80
2023-05-19T12:23:02.885Z,22.80
2023-05-19T12:25:31.843Z,22.00
2023-05-19T12:28:00.302Z,21.90
2023-05-19T12:30:31.579Z,22.30
2023-05-19T12:32:58.734Z,22.10
2023-05-19T12:35:30.232Z,22.40
2023-05-19T12:37:57.799Z,22.20
2023-05-19T12:40:26.124Z,21.90
2023-05-19T12:42:58.805Z,21.70
2023-05-19T12:45:27.918Z,21.50
2023-05-19T12:47:54.837Z,21.60
2023-05-19T12:50:21.775Z,21.60
2023-05-19T12:52:52.119Z,21.80
2023-05-19T12:55:20.929Z,22.00
2023-05-19T12:57:57.406Z,21.80
2023-05-19T13:00:28.506Z,21.60
2023-05-19T13:03:00.700Z,21.30
2023-05-19T13:05:28.694Z,21.00
2023-05-19T13:08:07.532Z,21.00
2023-05-19T13:10:35.879Z,21.00
2023-05-19T13:13:03.477Z,21.10
2023-05-19T13:15:36.645Z,21.20
2023-05-19T13:18:06.109Z,21.30
2023-05-19T13:20:34.282Z,21.40
2023-05-19T13:23:01.923Z,21.20
2023-05-19T13:25:29.039Z,21.30
2023-05-19T13:27:58.860Z,21.40
2023-05-19T13:30:25.744Z,21.50
2023-05-19T13:32:52.765Z,21.50
2023-05-19T13:35:20.341Z,21.40
2023-05-19T13:37:48.967Z,21.50
2023-05-19T13:40:16.952Z,21.40
2023-05-19T13:42:43.919Z,21.30
2023-05-19T13:45:10.758Z,21.20
2023-05-19T13:47:38.488Z,21.20
2023-05-19T13:50:05.878Z,21.20
2023-05-19T13:52:32.916Z,21.20
2023-05-19T13:54:59.723Z,21.20
2023-05-19T13:57:28.037Z,21.20
2023-05-19T14:00:02.430Z,21.40
2023-05-19T14:02:30.901Z,21.50
2023-05-19T14:04:57.883Z,21.50
2023-05-19T14:07:25.620Z,21.60
2023-05-19T14:09:53.064Z,21.70
2023-05-19T14:12:23.213Z,21.90
2023-05-19T14:14:52.262Z,22.50
2023-05-19T14:17:19.069Z,23.00
2023-05-19T14:19:48.361Z,23.70
2023-05-19T14:22:15.038Z,24.30
2023-05-19T14:24:41.748Z,23.70
2023-05-19T14:27:08.526Z,23.00
2023-05-19T14:29:35.299Z,22.60
2023-05-19T14:32:03.491Z,22.60
2023-05-19T14:34:31.515Z,22.10
2023-05-19T14:36:59.127Z,21.80
2023-05-19T14:39:25.888Z,21.60
2023-05-19T14:41:52.958Z,21.50
2023-05-19T14:44:19.636Z,21.70
2023-05-19T14:46:46.257Z,21.70
2023-05-19T14:49:12.902Z,21.70
2023-05-19T14:51:40.984Z,21.90
2023-05-19T14:54:07.712Z,21.90
2023-05-19T14:56:34.528Z,22.00
2023-05-19T14:59:01.407Z,22.30
2023-05-19T15:01:28.160Z,22.30
2023-05-19T15:03:54.966Z,22.30
2023-05-19T15:06:22.086Z,22.00
2023-05-19T15:08:48.913Z,21.60
2023-05-19T15:11:15.518Z,21.40
2023-05-19T15:13:42.222Z,21.40
2023-05-19T15:16:17.489Z,21.30
2023-05-19T15:18:45.016Z,21.10
2023-05-19T15:21:11.829Z,21.10
2023-05-19T15:23:38.470Z,21.10
2023-05-19T15:26:05.373Z,21.20
2023-05-19T15:28:32.252Z,21.50
2023-05-19T15:30:59.066Z,21.50
2023-05-19T15:33:25.947Z,21.60
2023-05-19T15:35:52.649Z,21.50
2023-05-19T15:38:22.329Z,21.60
2023-05-19T15:40:49.156Z,21.70
2023-05-19T15:43:15.984Z,21.90
2023-05-19T15:45:42.673Z,21.80
2023-05-19T15:48:09.647Z,21.80
2023-05-19T15:50:36.578Z,22.00
2023-05-19T15:53:03.501Z,21.80
2023-05-19T15:55:30.431Z,21.80
2023-05-19T15:57:57.455Z,21.70
2023-05-19T16:00:24.437Z,21.80
2023-05-19T16:02:51.421Z,21.70
2023-05-19T16:05:18.310Z,21.50
2023-05-19T16:07:45.243Z,21.50
2023-05-19T16:10:12.242Z,21.50
2023-05-19T16:12:41.088Z,21.60
2023-05-19T16:15:08.348Z,21.60
2023-05-19T16:17:35.345Z,21.60
2023-05-19T16:20:02.081Z,21.70
2023-05-19T16:22:30.216Z,21.80
2023-05-19T16:24:57.025Z,21.80
2023-05-19T16:27:23.757Z,21.90
2023-05-19T16:29:50.377Z,21.90
2023-05-19T16:32:16.971Z,21.60
2023-05-19T16:34:43.622Z,21.60
2023-05-19T16:37:10.354Z,21.70
2023-05-19T16:39:37.302Z,21.60
2023-05-19T16:42:04.723Z,21.60
2023-05-19T16:44:31.457Z,21.50
2023-05-19T16:46:58.125Z,21.60
2023-05-19T16:49:24.854Z,21.30
2023-05-19T16:51:52.897Z,21.00
2023-05-19T16:54:20.820Z,21.00
2023-05-19T16:56:47.569Z,21.00
2023-05-19T16:59:14.341Z,20.80
2023-05-19T17:01:42.166Z,20.50
2023-05-19T17:04:09.877Z,20.40
2023-05-19T17:06:36.588Z,20.50
2023-05-19T17:09:03.757Z,20.40
2023-05-19T17:11:30.657Z,20.30
2023-05-19T17:13:57.314Z,20.10
2023-05-19T17:16:24.182Z,20.00
2023-05-19T17:18:51.430Z,19.90
2023-05-19T17:21:18.263Z,19.80
2023-05-19T17:23:45.076Z,19.80
2023-05-19T17:26:11.944Z,19.90
2023-05-19T17:28:38.960Z,19.80
2023-05-19T17:31:12.606Z,19.70
2023-05-19T17:33:39.765Z,19.60
2023-05-19T17:36:08.792Z,19.60
2023-05-19T17:38:40.187Z,19.50
2023-05-19T17:41:12.123Z,19.50
2023-05-19T17:43:41.552Z,19.50
2023-05-19T17:46:09.360Z,19.30
2023-05-19T17:48:39.856Z,19.30
2023-05-19T17:51:09.583Z,19.30
2023-05-19T17:53:36.810Z,19.20
2023-05-19T17:56:06.453Z,19.10
2023-05-19T17:58:33.696Z,19.00
2023-05-19T18:01:00.602Z,19.00
2023-05-19T18:03:27.649Z,18.90
2023-05-19T18:05:54.872Z,18.80
2023-05-19T18:08:21.949Z,18.80
2023-05-19T18:10:51.516Z,18.70
2023-05-19T18:13:18.365Z,18.70
2023-05-19T18:15:45.107Z,18.60
2023-05-19T18:18:11.872Z,18.50
2023-05-19T18:20:41.052Z,18.60
2023-05-19T18:23:07.897Z,18.50
2023-05-19T18:25:35.749Z,18.40
2023-05-19T18:28:02.744Z,18.50
2023-05-19T18:30:29.653Z,18.40
2023-05-19T18:32:56.486Z,18.30
2023-05-19T18:35:23.430Z,18.30
2023-05-19T18:37:50.616Z,18.20
2023-05-19T18:40:17.674Z,18.10
2023-05-19T18:42:44.420Z,18.10
2023-05-19T18:45:11.498Z,18.10
2023-05-19T18:47:38.350Z,18.00
2023-05-19T18:50:06.994Z,17.90
2023-05-19T18:52:33.918Z,17.90
2023-05-19T18:55:01.139Z,17.80
2023-05-19T18:57:27.967Z,17.70
2023-05-19T18:59:54.773Z,17.70
2023-05-19T19:02:21.631Z,17.70
2023-05-19T19:04:48.608Z,17.60
2023-05-19T19:07:15.535Z,17.60
2023-05-19T19:09:44.808Z,17.50
2023-05-19T19:12:11.539Z,17.50
2023-05-19T19:14:38.955Z,17.50
2023-05-19T19:17:06.055Z,17.40
2023-05-19T19:19:37.141Z,17.30
2023-05-19T19:22:08.746Z,17.30
2023-05-19T19:24:35.817Z,17.20
2023-05-19T19:27:02.639Z,17.20
2023-05-19T19:29:29.482Z,17.20
2023-05-19T19:31:56.351Z,17.20
2023-05-19T19:34:23.080Z,17.10
2023-05-19T19:36:49.902Z,17.00
2023-05-19T19:39:16.815Z,17.00
2023-05-19T19:41:43.592Z,17.00
2023-05-19T19:44:10.346Z,16.90
2023-05-19T19:46:37.047Z,16.80
2023-05-19T19:49:03.812Z,16.80
2023-05-19T19:51:31.496Z,16.90
2023-05-19T19:53:58.623Z,16.90
2023-05-19T19:56:27.362Z,16.80
2023-05-19T19:58:56.890Z,16.80
2023-05-19T20:01:27.864Z,16.80
2023-05-19T20:03:55.904Z,16.70
2023-05-19T20:06:22.889Z,16.70
2023-05-19T20:08:49.753Z,16.70
2023-05-19T20:11:17.446Z,16.70
2023-05-19T20:13:44.314Z,16.60
2023-05-19T20:16:11.746Z,16.50
2023-05-19T20:18:39.672Z,16.60
2023-05-19T20:21:06.674Z,16.50
2023-05-19T20:23:33.456Z,16.40
2023-05-19T20:26:11.128Z,16.40
2023-05-19T20:28:39.682Z,16.30
2023-05-19T20:31:06.456Z,16.30
2023-05-19T20:33:33.126Z,16.30
2023-05-19T20:35:59.937Z,16.20
2023-05-19T20:38:26.716Z,16.20
2023-05-19T20:40:54.416Z,16.10
2023-05-19T20:43:21.375Z,16.00
2023-05-19T20:45:48.272Z,16.00
2023-05-19T20:48:15.982Z,15.90
2023-05-19T20:50:43.071Z,15.90
2023-05-19T20:53:09.870Z,15.90
2023-05-19T20:55:38.153Z,15.90
2023-05-19T20:58:05.137Z,15.80
2023-05-19T21:00:32.108Z,15.70
2023-05-19T21:02:59.108Z,15.70
2023-05-19T21:05:25.820Z,15.60
2023-05-19T21:07:52.609Z,15.60
2023-05-19T21:10:19.225Z,15.50
2023-05-19T21:12:46.644Z,15.40
2023-05-19T21:15:13.409Z,15.40
2023-05-19T21:17:40.272Z,15.40
2023-05-19T21:20:07.743Z,15.30
2023-05-19T21:22:35.951Z,15.20
2023-05-19T21:25:02.929Z,15.20
2023-05-19T21:27:32.038Z,15.20
2023-05-19T21:29:58.908Z,15.20
2023-05-19T21:32:25.756Z,15.20
2023-05-19T21:34:52.373Z,15.10
2023-05-19T21:37:19.727Z,15.00
2023-05-19T21:39:46.490Z,15.10
2023-05-19T21:42:14.186Z,15.10
2023-05-19T21:44:41.075Z,15.10
2023-05-19T21:47:07.755Z,15.10
2023-05-19T21:49:34.596Z,15.00
2023-05-19T21:52:01.232Z,14.80
2023-05-19T21:54:27.939Z,14.80
2023-05-19T21:56:54.672Z,14.70
2023-05-19T21:59:23.217Z,14.60
2023-05-19T22:01:50.315Z,14.60
2023-05-19T22:04:18.793Z,14.60
2023-05-19T22:06:45.593Z,14.70
2023-05-19T22:09:12.719Z,14.60
2023-05-19T22:11:39.762Z,14.60
2023-05-19T22:14:06.848Z,14.50
2023-05-19T22:16:33.744Z,14.50
2023-05-19T22:19:00.667Z,14.40
2023-05-19T22:21:27.382Z,14.50
2023-05-19T22:23:54.045Z,14.40
2023-05-19T22:26:21.670Z,14.40
2023-05-19T22:28:49.459Z,14.30
2023-05-19T22:31:16.680Z,14.30
2023-05-19T22:33:43.434Z,14.10
2023-05-19T22:36:11.023Z,14.00
2023-05-19T22:38:37.838Z,14.10
2023-05-19T22:41:04.790Z,14.10
2023-05-19T22:43:31.615Z,14.00
2023-05-19T22:45:58.274Z,14.10
2023-05-19T22:48:25.087Z,14.10
2023-05-19T22:50:52.093Z,14.00
2023-05-19T22:53:18.732Z,14.10
2023-05-19T22:55:45.590Z,14.10
2023-05-19T22:58:12.229Z,14.10
2023-05-19T23:00:39.050Z,14.10
2023-05-19T23:03:06.023Z,14.20
2023-05-19T23:05:33.027Z,14.20
2023-05-19T23:07:59.919Z,14.20
2023-05-19T23:10:26.591Z,14.20
2023-05-19T23:12:53.459Z,14.30
2023-05-19T23:15:20.300Z,14.40
2023-05-19T23:17:47.115Z,14.30
2023-05-19T23:20:14.029Z,14.40
2023-05-19T23:22:40.944Z,14.30
2023-05-19T23:25:07.925Z,14.40
2023-05-19T23:27:37.705Z,14.40
2023-05-19T23:30:04.819Z,14.40
2023-05-19T23:32:31.856Z,14.20
2023-05-19T23:35:08.333Z,14.20
2023-05-19T23:37:35.666Z,14.10
2023-05-19T23:40:02.341Z,14.10
2023-05-19T23:42:29.085Z,14.10
2023-05-19T23:44:55.809Z,14.10
2023-05-19T23:47:22.651Z,14.10
2023-05-19T23:49:49.598Z,14.10
2023-05-19T23:52:16.247Z,14.10
2023-05-19T23:54:43.024Z,14.10
2023-05-19T23:57:09.670Z,14.20
2023-05-19T23:59:36.472Z,14.10
